Time;durP1;ratioP1;P1;durP2;ratioP2;P2;SDS_P1;SDS_P2;PMS_P1;PMS_P2;Temp;Humidity;BMP_temperature;BMP_pressure;BME280_temperature;BME280_humidity;BME280_pressure;Samples;Min_cycle;Max_cycle;Signal;HPM_P1;HPM_P2
2024/04/15 00:00:08;;;;;;;3.80;1.23;;;;;;;;;;5343877;26;20019;-66
2024/04/15 00:02:37;;;;;;;4.60;1.08;;;;;;;;;;5340839;26;20476;-69
2024/04/15 00:05:03;;;;;;;3.35;1.35;;;;;;;;;;5341337;26;20001;-68
2024/04/15 00:07:29;;;;;;;2.60;1.33;;;;;;;;;;5341001;26;20027;-68
2024/04/15 00:09:54;;;;;;;3.00;1.13;;;;;;;;;;5341757;26;20451;-68
2024/04/15 00:12:19;;;;;;;6.45;1.40;;;;;;;;;;5342886;26;20005;-66
2024/04/15 00:14:45;;;;;;;5.28;1.30;;;;;;;;;;5313211;26;19997;-67
2024/04/15 00:17:11;;;;;;;5.82;1.55;;;;;;;;;;5342625;26;20027;-66
2024/04/15 00:19:39;;;;;;;3.92;1.30;;;;;;;;;;5343435;26;20341;-66
2024/04/15 00:22:04;;;;;;;5.60;1.50;;;;;;;;;;5340939;26;20457;-67
2024/04/15 00:24:29;;;;;;;3.20;1.67;;;;;;;;;;5343671;26;20111;-66
2024/04/15 00:26:55;;;;;;;3.92;1.45;;;;;;;;;;5344579;26;20013;-66
2024/04/15 00:29:20;;;;;;;5.72;1.80;;;;;;;;;;5344928;26;20074;-67
2024/04/15 00:31:46;;;;;;;3.90;1.77;;;;;;;;;;5346513;26;20110;-67
2024/04/15 00:34:13;;;;;;;6.65;1.40;;;;;;;;;;5346663;26;20001;-66
2024/04/15 00:36:39;;;;;;;3.78;1.63;;;;;;;;;;5344716;26;20452;-66
2024/04/15 00:39:04;;;;;;;2.75;1.60;;;;;;;;;;5345482;26;20009;-66
2024/04/15 00:41:30;;;;;;;9.48;1.85;;;;;;;;;;5344554;26;19997;-66
2024/04/15 00:43:55;;;;;;;6.03;1.85;;;;;;;;;;5345521;26;20416;-66
2024/04/15 00:46:21;;;;;;;9.32;1.80;;;;;;;;;;5344313;26;20067;-67
2024/04/15 00:48:46;;;;;;;3.78;2.08;;;;;;;;;;5346170;26;20083;-66
2024/04/15 00:51:13;;;;;;;6.95;1.55;;;;;;;;;;5344176;26;20012;-66
2024/04/15 00:53:41;;;;;;;2.80;1.77;;;;;;;;;;5345962;26;20009;-67
2024/04/15 00:56:07;;;;;;;4.50;2.15;;;;;;;;;;5344310;26;20433;-66
2024/04/15 00:58:33;;;;;;;5.40;2.17;;;;;;;;;;5345435;26;20016;-67
2024/04/15 01:01:00;;;;;;;5.50;3.15;;;;;;;;;;5344317;26;20007;-68
2024/04/15 01:03:26;;;;;;;7.57;3.20;;;;;;;;;;5345997;26;20438;-67
2024/04/15 01:05:52;;;;;;;5.03;3.47;;;;;;;;;;5343749;26;19999;-67
2024/04/15 01:08:18;;;;;;;10.63;4.40;;;;;;;;;;5345441;26;20008;-67
2024/04/15 01:10:43;;;;;;;6.85;3.42;;;;;;;;;;5346481;26;20014;-66
2024/04/15 01:13:09;;;;;;;7.78;3.13;;;;;;;;;;5343301;26;20019;-65
2024/04/15 01:15:34;;;;;;;4.63;2.85;;;;;;;;;;5344154;26;20105;-67
2024/04/15 01:18:01;;;;;;;5.55;3.17;;;;;;;;;;5345541;26;20442;-66
2024/04/15 01:20:27;;;;;;;8.52;3.35;;;;;;;;;;5346142;26;20001;-65
2024/04/15 01:23:03;;;;;;;4.82;2.95;;;;;;;;;;5343311;26;20068;-65
2024/04/15 01:25:29;;;;;;;4.28;2.97;;;;;;;;;;5345830;26;20460;-66
2024/04/15 01:27:55;;;;;;;5.18;2.97;;;;;;;;;;5343207;26;20008;-65
2024/04/15 01:30:21;;;;;;;2.72;2.40;;;;;;;;;;5345621;26;20020;-65
2024/04/15 01:32:46;;;;;;;7.22;2.75;;;;;;;;;;5343394;26;20041;-65
2024/04/15 01:35:14;;;;;;;6.85;3.33;;;;;;;;;;5345611;26;20012;-65
2024/04/15 01:37:39;;;;;;;6.00;2.83;;;;;;;;;;5342997;26;20004;-65
2024/04/15 01:40:05;;;;;;;9.55;2.63;;;;;;;;;;5345451;26;20005;-65
2024/04/15 01:42:30;;;;;;;3.20;2.42;;;;;;;;;;5344690;26;20012;-65
2024/04/15 01:44:56;;;;;;;5.40;2.65;;;;;;;;;;5343159;26;20015;-65
2024/04/15 01:47:21;;;;;;;4.35;2.63;;;;;;;;;;5342918;26;20087;-65
2024/04/15 01:49:46;;;;;;;4.43;2.75;;;;;;;;;;5343875;26;20004;-65
2024/04/15 01:52:11;;;;;;;3.17;2.75;;;;;;;;;;5343214;26;20009;-65
2024/04/15 01:54:37;;;;;;;10.85;2.72;;;;;;;;;;5343110;26;20027;-65
2024/04/15 01:57:02;;;;;;;6.47;3.72;;;;;;;;;;5344749;26;20041;-65
2024/04/15 01:59:28;;;;;;;7.68;3.55;;;;;;;;;;5344832;26;20012;-65
2024/04/15 02:01:53;;;;;;;11.00;3.85;;;;;;;;;;5342892;26;20039;-65
2024/04/15 02:04:18;;;;;;;5.20;3.53;;;;;;;;;;5314789;26;20001;-66
2024/04/15 02:06:44;;;;;;;15.13;4.07;;;;;;;;;;5345308;26;20325;-65
2024/04/15 02:09:09;;;;;;;10.27;4.82;;;;;;;;;;5345102;26;20336;-65
2024/04/15 02:11:34;;;;;;;9.27;5.00;;;;;;;;;;5345530;26;20037;-65
2024/04/15 02:13:59;;;;;;;11.43;4.63;;;;;;;;;;5344505;26;20021;-64
2024/04/15 02:16:25;;;;;;;14.40;5.40;;;;;;;;;;5345235;26;20011;-65
2024/04/15 02:18:50;;;;;;;8.05;4.78;;;;;;;;;;5343892;26;20012;-65
2024/04/15 02:21:15;;;;;;;16.52;5.88;;;;;;;;;;5345549;26;20047;-65
2024/04/15 02:23:41;;;;;;;9.35;5.38;;;;;;;;;;5342776;26;20003;-65
2024/04/15 02:26:06;;;;;;;10.82;6.38;;;;;;;;;;5344972;26;20440;-65
2024/04/15 02:28:31;;;;;;;12.93;6.80;;;;;;;;;;5342007;26;20013;-64
2024/04/15 02:30:57;;;;;;;14.75;6.78;;;;;;;;;;5345076;26;19996;-66
2024/04/15 02:33:22;;;;;;;17.30;6.95;;;;;;;;;;5342357;26;20403;-66
2024/04/15 02:35:47;;;;;;;20.13;7.95;;;;;;;;;;5345219;26;19993;-66
2024/04/15 02:38:12;;;;;;;15.00;7.72;;;;;;;;;;5342522;26;20008;-66
2024/04/15 02:40:38;;;;;;;13.18;8.80;;;;;;;;;;5342760;26;20461;-66
2024/04/15 02:43:03;;;;;;;16.15;8.05;;;;;;;;;;5342599;26;20008;-65
2024/04/15 02:45:28;;;;;;;13.23;7.28;;;;;;;;;;5344340;26;19996;-66
2024/04/15 02:47:54;;;;;;;17.02;9.32;;;;;;;;;;5341509;26;20029;-66
2024/04/15 02:50:19;;;;;;;29.65;9.13;;;;;;;;;;5344799;26;19997;-66
2024/04/15 02:52:44;;;;;;;18.88;8.52;;;;;;;;;;5342364;26;20016;-66
2024/04/15 02:55:09;;;;;;;15.82;8.88;;;;;;;;;;5344622;26;20008;-66
2024/04/15 02:57:35;;;;;;;23.35;8.82;;;;;;;;;;5344305;26;20013;-66
2024/04/15 03:00:00;;;;;;;26.20;9.63;;;;;;;;;;5344112;26;20009;-66
2024/04/15 03:02:25;;;;;;;24.70;9.90;;;;;;;;;;5341728;26;20461;-66
2024/04/15 03:04:51;;;;;;;21.05;10.25;;;;;;;;;;5344443;26;20001;-66
2024/04/15 03:07:16;;;;;;;21.85;10.05;;;;;;;;;;5344428;26;20015;-65
2024/04/15 03:09:42;;;;;;;19.42;9.55;;;;;;;;;;5344756;26;20472;-68
2024/04/15 03:12:07;;;;;;;20.30;9.93;;;;;;;;;;5343907;26;20000;-69
2024/04/15 03:14:32;;;;;;;21.30;11.38;;;;;;;;;;5344587;26;20009;-65
2024/04/15 03:16:57;;;;;;;27.88;10.63;;;;;;;;;;5343357;26;20001;-66
2024/04/15 03:19:23;;;;;;;26.85;11.45;;;;;;;;;;5344320;26;19997;-68
2024/04/15 03:21:48;;;;;;;28.02;9.70;;;;;;;;;;5343873;26;19997;-68
2024/04/15 03:24:14;;;;;;;18.75;9.60;;;;;;;;;;5344533;26;20011;-68
2024/04/15 03:26:40;;;;;;;22.75;10.52;;;;;;;;;;5344282;26;20325;-65
2024/04/15 03:29:05;;;;;;;23.98;9.45;;;;;;;;;;5341248;26;20533;-65
2024/04/15 03:31:30;;;;;;;21.60;10.00;;;;;;;;;;5344405;26;20333;-67
2024/04/15 03:33:56;;;;;;;18.20;8.60;;;;;;;;;;5343370;26;20017;-67
2024/04/15 03:36:21;;;;;;;28.23;10.07;;;;;;;;;;5344107;26;19997;-67
2024/04/15 03:38:46;;;;;;;13.43;8.02;;;;;;;;;;5344215;26;20019;-66
2024/04/15 03:41:12;;;;;;;14.32;8.48;;;;;;;;;;5344117;26;20455;-65
2024/04/15 03:43:37;;;;;;;20.90;9.80;;;;;;;;;;5343560;26;20036;-65
2024/04/15 03:46:02;;;;;;;17.50;8.77;;;;;;;;;;5342048;26;20008;-67
2024/04/15 03:48:28;;;;;;;23.17;10.35;;;;;;;;;;5343393;26;20015;-65
2024/04/15 03:50:53;;;;;;;25.33;10.13;;;;;;;;;;5343644;26;20456;-66
2024/04/15 03:53:18;;;;;;;22.20;9.30;;;;;;;;;;5342991;26;20024;-66
2024/04/15 03:55:54;;;;;;;19.52;9.80;;;;;;;;;;5341835;26;19997;-66
2024/04/15 03:58:19;;;;;;;20.90;10.07;;;;;;;;;;5341492;26;20024;-68
2024/04/15 04:00:45;;;;;;;20.30;8.40;;;;;;;;;;5347063;26;20449;-65
2024/04/15 04:03:10;;;;;;;17.85;9.55;;;;;;;;;;5346169;26;20020;-65
2024/04/15 04:05:35;;;;;;;19.58;9.55;;;;;;;;;;5344938;26;20001;-66
2024/04/15 04:08:01;;;;;;;26.70;10.65;;;;;;;;;;5346291;26;20027;-65
2024/04/15 04:10:26;;;;;;;13.70;8.82;;;;;;;;;;5346457;26;20000;-65
2024/04/15 04:12:51;;;;;;;15.95;8.73;;;;;;;;;;5346025;26;20090;-65
2024/04/15 04:15:17;;;;;;;16.27;9.43;;;;;;;;;;5346517;26;20001;-65
2024/04/15 04:17:45;;;;;;;18.67;9.52;;;;;;;;;;5344185;26;20017;-67
2024/04/15 04:20:11;;;;;;;17.17;10.23;;;;;;;;;;5346350;26;20001;-68
2024/04/15 04:22:36;;;;;;;15.50;9.63;;;;;;;;;;5315183;26;20013;-68
2024/04/15 04:25:01;;;;;;;24.70;9.93;;;;;;;;;;5346846;26;20001;-65
2024/04/15 04:27:27;;;;;;;22.00;9.82;;;;;;;;;;5343997;26;20013;-65
2024/04/15 04:29:52;;;;;;;19.65;9.00;;;;;;;;;;5344453;26;20015;-65
2024/04/15 04:32:17;;;;;;;22.30;9.77;;;;;;;;;;5315528;26;20009;-64
2024/04/15 04:34:43;;;;;;;18.92;11.15;;;;;;;;;;5346643;26;20001;-65
2024/04/15 04:37:08;;;;;;;27.25;9.75;;;;;;;;;;5344395;26;20078;-65
2024/04/15 04:39:33;;;;;;;21.45;11.05;;;;;;;;;;5344775;26;20369;-65
2024/04/15 04:41:58;;;;;;;28.05;11.88;;;;;;;;;;5345786;26;20417;-67
2024/04/15 04:44:25;;;;;;;23.80;10.25;;;;;;;;;;5346686;26;20009;-68
2024/04/15 04:46:51;;;;;;;19.50;11.30;;;;;;;;;;5345559;26;20008;-68
2024/04/15 04:49:17;;;;;;;21.58;12.82;;;;;;;;;;5346704;26;20008;-67
2024/04/15 04:51:42;;;;;;;28.73;13.63;;;;;;;;;;5344559;26;20461;-66
2024/04/15 04:54:07;;;;;;;23.10;12.05;;;;;;;;;;5345992;26;20343;-66
2024/04/15 04:56:33;;;;;;;32.30;12.98;;;;;;;;;;5346295;26;20455;-66
2024/04/15 04:58:58;;;;;;;23.92;11.55;;;;;;;;;;5345506;26;20016;-66
2024/04/15 05:01:23;;;;;;;29.85;13.05;;;;;;;;;;5343843;26;20021;-66
2024/04/15 05:03:50;;;;;;;28.95;12.85;;;;;;;;;;5343540;26;20009;-65
2024/04/15 05:06:17;;;;;;;30.88;11.45;;;;;;;;;;5346169;26;20095;-66
2024/04/15 05:08:46;;;;;;;27.45;11.52;;;;;;;;;;5344834;26;20444;-65
2024/04/15 05:11:11;;;;;;;25.02;11.75;;;;;;;;;;5344458;26;20009;-66
2024/04/15 05:13:37;;;;;;;27.58;12.00;;;;;;;;;;5345577;26;20031;-65
2024/04/15 05:16:06;;;;;;;25.70;12.77;;;;;;;;;;5345820;26;20017;-66
2024/04/15 05:18:32;;;;;;;23.65;12.60;;;;;;;;;;5345733;26;20384;-66
2024/04/15 05:20:59;;;;;;;29.08;11.20;;;;;;;;;;5344002;26;20009;-66
2024/04/15 05:23:25;;;;;;;26.70;12.40;;;;;;;;;;5345049;26;20016;-65
2024/04/15 05:25:50;;;;;;;26.33;10.95;;;;;;;;;;5345293;26;20452;-66
2024/04/15 05:28:16;;;;;;;38.88;13.45;;;;;;;;;;5345628;26;20012;-65
2024/04/15 05:30:41;;;;;;;31.08;10.93;;;;;;;;;;5345268;26;20436;-65
2024/04/15 05:33:06;;;;;;;25.90;10.75;;;;;;;;;;5342488;26;20009;-66
2024/04/15 05:35:32;;;;;;;28.10;11.93;;;;;;;;;;5344968;26;20399;-65
2024/04/15 05:37:57;;;;;;;31.75;12.32;;;;;;;;;;5344791;26;20009;-66
2024/04/15 05:40:22;;;;;;;28.92;12.23;;;;;;;;;;5343389;26;20015;-66
2024/04/15 05:42:48;;;;;;;27.23;11.77;;;;;;;;;;5343225;26;20028;-66
2024/04/15 05:45:13;;;;;;;27.90;11.55;;;;;;;;;;5345359;26;20338;-66
2024/04/15 05:47:38;;;;;;;30.42;11.82;;;;;;;;;;5344888;26;20013;-66
2024/04/15 05:50:04;;;;;;;30.45;11.73;;;;;;;;;;5345311;26;20001;-66
2024/04/15 05:52:30;;;;;;;23.55;12.10;;;;;;;;;;5345080;26;20352;-66
2024/04/15 05:54:55;;;;;;;27.25;13.00;;;;;;;;;;5343827;26;20012;-66
2024/04/15 05:57:20;;;;;;;24.08;11.90;;;;;;;;;;5344795;26;20016;-66
2024/04/15 05:59:47;;;;;;;33.08;13.00;;;;;;;;;;5345822;26;20013;-66
2024/04/15 06:02:12;;;;;;;26.42;12.50;;;;;;;;;;5344896;26;20023;-68
2024/04/15 06:04:38;;;;;;;29.35;14.10;;;;;;;;;;5345507;26;20001;-68
2024/04/15 06:07:03;;;;;;;28.65;14.07;;;;;;;;;;5342623;26;20090;-67
2024/04/15 06:09:29;;;;;;;32.10;14.52;;;;;;;;;;5345493;26;20452;-67
2024/04/15 06:11:54;;;;;;;26.83;15.25;;;;;;;;;;5342286;26;20015;-67
2024/04/15 06:14:22;;;;;;;29.52;15.35;;;;;;;;;;5343474;26;19997;-67
2024/04/15 06:16:52;;;;;;;34.28;15.93;;;;;;;;;;5342209;26;20007;-68
2024/04/15 06:19:17;;;;;;;29.17;15.90;;;;;;;;;;5343285;26;20437;-68
2024/04/15 06:21:43;;;;;;;31.10;15.95;;;;;;;;;;5341655;26;20027;-67
2024/04/15 06:24:09;;;;;;;28.67;15.48;;;;;;;;;;5343916;26;20021;-67
2024/04/15 06:26:34;;;;;;;27.33;14.85;;;;;;;;;;5344961;26;20011;-67
2024/04/15 06:29:01;;;;;;;33.55;16.05;;;;;;;;;;5344861;26;20067;-68
2024/04/15 06:31:27;;;;;;;36.80;16.77;;;;;;;;;;5344581;26;20090;-67
2024/04/15 06:33:52;;;;;;;32.13;17.05;;;;;;;;;;5341847;26;20020;-67
2024/04/15 06:36:17;;;;;;;28.98;16.70;;;;;;;;;;5345145;26;20004;-68
2024/04/15 06:38:42;;;;;;;32.75;15.02;;;;;;;;;;5342209;26;20020;-68
2024/04/15 06:41:08;;;;;;;32.92;16.52;;;;;;;;;;5342923;26;20066;-67
2024/04/15 06:43:33;;;;;;;30.67;17.63;;;;;;;;;;5342079;26;20082;-67
2024/04/15 06:45:58;;;;;;;36.40;20.08;;;;;;;;;;5345073;26;20340;-67
2024/04/15 06:48:24;;;;;;;34.83;18.77;;;;;;;;;;5344201;26;20060;-67
2024/04/15 06:50:50;;;;;;;29.65;18.73;;;;;;;;;;5315962;26;20016;-67
2024/04/15 06:53:15;;;;;;;29.95;17.67;;;;;;;;;;5332010;26;20009;-68
2024/04/15 06:55:42;;;;;;;25.60;16.23;;;;;;;;;;5344601;26;20005;-67
2024/04/15 06:58:07;;;;;;;26.05;17.48;;;;;;;;;;5344062;26;20044;-67
2024/04/15 07:00:33;;;;;;;24.75;16.30;;;;;;;;;;5342895;26;20465;-68
2024/04/15 07:02:58;;;;;;;31.77;19.00;;;;;;;;;;5343747;26;20020;-68
2024/04/15 07:05:23;;;;;;;29.73;19.02;;;;;;;;;;5342404;26;20001;-68
2024/04/15 07:07:49;;;;;;;34.38;19.70;;;;;;;;;;5344222;26;20342;-67
2024/04/15 07:10:14;;;;;;;28.60;16.65;;;;;;;;;;5344187;26;20325;-67
2024/04/15 07:12:40;;;;;;;25.20;16.63;;;;;;;;;;5341703;26;20043;-66
2024/04/15 07:15:05;;;;;;;24.60;15.85;;;;;;;;;;5344547;26;20020;-66
2024/04/15 07:17:31;;;;;;;27.02;16.90;;;;;;;;;;5344007;26;20041;-66
2024/04/15 07:19:57;;;;;;;29.33;14.93;;;;;;;;;;5342536;26;20391;-65
2024/04/15 07:22:22;;;;;;;25.77;14.73;;;;;;;;;;5341834;26;20023;-65
2024/04/15 07:24:49;;;;;;;22.73;12.63;;;;;;;;;;5344549;26;20004;-65
2024/04/15 07:27:14;;;;;;;14.82;10.85;;;;;;;;;;5341786;26;20086;-65
2024/04/15 07:29:39;;;;;;;16.77;8.75;;;;;;;;;;5342220;26;20447;-65
2024/04/15 07:32:05;;;;;;;11.65;7.90;;;;;;;;;;5343637;26;20082;-65
2024/04/15 07:34:30;;;;;;;8.73;6.28;;;;;;;;;;5313596;26;20029;-65
2024/04/15 07:36:55;;;;;;;8.50;5.80;;;;;;;;;;5343583;26;20351;-66
2024/04/15 07:39:21;;;;;;;10.73;5.30;;;;;;;;;;5341928;26;20352;-66
2024/04/15 07:41:46;;;;;;;7.53;5.03;;;;;;;;;;5343317;26;19997;-65
2024/04/15 07:44:11;;;;;;;7.25;4.90;;;;;;;;;;5342274;26;20012;-65
2024/04/15 07:46:37;;;;;;;8.90;4.63;;;;;;;;;;5341735;26;20042;-65
2024/04/15 07:49:02;;;;;;;8.40;3.50;;;;;;;;;;5343303;26;20026;-65
2024/04/15 07:51:28;;;;;;;6.72;4.00;;;;;;;;;;5343543;26;20009;-65
2024/04/15 07:53:54;;;;;;;6.75;4.30;;;;;;;;;;5340927;26;20021;-65
2024/04/15 07:56:20;;;;;;;7.07;3.85;;;;;;;;;;5343685;26;20477;-66
2024/04/15 07:58:45;;;;;;;12.30;4.28;;;;;;;;;;5341375;26;20009;-65
2024/04/15 08:01:11;;;;;;;8.82;4.05;;;;;;;;;;5341818;26;19997;-65
2024/04/15 08:03:36;;;;;;;10.25;3.92;;;;;;;;;;5343288;26;20020;-65
2024/04/15 08:06:02;;;;;;;9.07;3.53;;;;;;;;;;5343472;26;20009;-65
2024/04/15 08:08:28;;;;;;;13.57;4.13;;;;;;;;;;5341217;26;20013;-64
2024/04/15 08:10:53;;;;;;;7.13;3.90;;;;;;;;;;5343667;26;20016;-65
2024/04/15 08:13:19;;;;;;;9.20;4.15;;;;;;;;;;5343432;26;20336;-65
2024/04/15 08:15:47;;;;;;;12.52;5.85;;;;;;;;;;5341610;26;20016;-65
2024/04/15 08:18:13;;;;;;;12.27;4.60;;;;;;;;;;5342781;26;20017;-65
2024/04/15 08:20:38;;;;;;;8.05;4.72;;;;;;;;;;5342973;26;20464;-67
2024/04/15 08:23:03;;;;;;;13.55;4.82;;;;;;;;;;5342941;26;20024;-67
2024/04/15 08:25:28;;;;;;;11.63;4.97;;;;;;;;;;5343625;26;20012;-67
2024/04/15 08:27:54;;;;;;;9.48;4.45;;;;;;;;;;5340927;26;20013;-67
2024/04/15 08:30:19;;;;;;;12.18;4.45;;;;;;;;;;5343675;26;20014;-67
2024/04/15 08:32:45;;;;;;;10.50;3.97;;;;;;;;;;5342304;26;20023;-67
2024/04/15 08:35:11;;;;;;;6.68;3.85;;;;;;;;;;5312672;26;20086;-67
2024/04/15 08:37:36;;;;;;;7.75;3.97;;;;;;;;;;5342316;26;20013;-67
2024/04/15 08:40:04;;;;;;;12.13;5.07;;;;;;;;;;5342794;26;20012;-68
2024/04/15 08:42:44;;;;;;;11.90;4.65;;;;;;;;;;5310936;26;20019;-67
2024/04/15 08:45:16;;;;;;;12.40;4.53;;;;;;;;;;5345227;26;20015;-67
2024/04/15 08:47:48;;;;;;;10.35;4.25;;;;;;;;;;5345575;26;20009;-67
2024/04/15 08:50:13;;;;;;;10.77;4.40;;;;;;;;;;5346113;26;20456;-67
2024/04/15 08:52:41;;;;;;;7.18;4.03;;;;;;;;;;5345861;26;20004;-67
2024/04/15 08:55:08;;;;;;;9.95;3.80;;;;;;;;;;5315053;26;20001;-67
2024/04/15 08:57:34;;;;;;;8.50;4.35;;;;;;;;;;5345905;26;20021;-67
2024/04/15 09:00:01;;;;;;;9.95;5.18;;;;;;;;;;5344312;26;20450;-67
2024/04/15 09:02:28;;;;;;;8.85;4.18;;;;;;;;;;5345757;26;20024;-67
2024/04/15 09:04:54;;;;;;;5.97;3.42;;;;;;;;;;5344283;26;20486;-67
2024/04/15 09:07:20;;;;;;;7.00;3.83;;;;;;;;;;5344665;26;20024;-67
2024/04/15 09:09:45;;;;;;;12.82;3.72;;;;;;;;;;5318270;26;21930;-67
2024/04/15 09:12:10;;;;;;;11.90;3.90;;;;;;;;;;5315504;26;20012;-67
2024/04/15 09:14:36;;;;;;;8.73;3.95;;;;;;;;;;5344306;26;20452;-67
2024/04/15 09:17:01;;;;;;;10.88;3.78;;;;;;;;;;5345704;26;20000;-67
2024/04/15 09:19:29;;;;;;;9.40;3.53;;;;;;;;;;5345956;26;20012;-67
2024/04/15 09:21:59;;;;;;;9.13;4.32;;;;;;;;;;5343207;26;19993;-67
2024/04/15 09:24:25;;;;;;;7.20;3.40;;;;;;;;;;5345976;26;20013;-66
2024/04/15 09:26:50;;;;;;;9.80;4.00;;;;;;;;;;5345099;26;20005;-67
2024/04/15 09:29:16;;;;;;;5.40;3.90;;;;;;;;;;5346223;26;20007;-67
2024/04/15 09:31:43;;;;;;;10.98;4.57;;;;;;;;;;5345840;26;20024;-65
2024/04/15 09:34:08;;;;;;;10.75;3.92;;;;;;;;;;5345495;26;20325;-65
2024/04/15 09:36:38;;;;;;;7.90;3.33;;;;;;;;;;5343930;26;20000;-65
2024/04/15 09:39:03;;;;;;;5.78;3.75;;;;;;;;;;5345043;26;20019;-65
2024/04/15 09:41:29;;;;;;;10.10;3.72;;;;;;;;;;5345519;26;20333;-65
2024/04/15 09:43:55;;;;;;;10.18;4.00;;;;;;;;;;5344638;26;20020;-65
2024/04/15 09:46:20;;;;;;;8.93;4.10;;;;;;;;;;5345912;26;19996;-64
2024/04/15 09:48:48;;;;;;;8.02;3.60;;;;;;;;;;5345363;26;20012;-65
2024/04/15 09:51:20;;;;;;;8.60;3.42;;;;;;;;;;5345776;26;19993;-64
2024/04/15 09:53:50;;;;;;;5.07;3.15;;;;;;;;;;5344584;26;20004;-64
2024/04/15 09:56:26;;;;;;;9.70;2.63;;;;;;;;;;5343801;26;19997;-65
2024/04/15 09:58:56;;;;;;;8.00;3.03;;;;;;;;;;5344025;26;20456;-65
2024/04/15 10:01:31;;;;;;;8.70;2.83;;;;;;;;;;5345772;26;20019;-65
2024/04/15 10:04:07;;;;;;;5.13;3.10;;;;;;;;;;5313707;26;20009;-64
2024/04/15 10:07:02;;;;;;;8.00;2.40;;;;;;;;;;5343682;26;20005;-65
2024/04/15 10:09:28;;;;;;;4.93;2.83;;;;;;;;;;5343073;26;20433;-64
2024/04/15 10:11:54;;;;;;;4.80;2.65;;;;;;;;;;5318174;26;20501;-64
2024/04/15 10:14:21;;;;;;;8.35;2.72;;;;;;;;;;5345912;26;20015;-65
2024/04/15 10:16:47;;;;;;;7.63;2.50;;;;;;;;;;5344894;26;19997;-65
2024/04/15 10:19:22;;;;;;;5.10;1.85;;;;;;;;;;5345613;26;20034;-66
2024/04/15 10:21:48;;;;;;;10.80;2.00;;;;;;;;;;5313566;26;19996;-65
2024/04/15 10:24:13;;;;;;;5.35;2.40;;;;;;;;;;5345275;26;20062;-65
2024/04/15 10:26:41;;;;;;;8.85;2.30;;;;;;;;;;5345250;26;19998;-65
2024/04/15 10:29:18;;;;;;;6.35;2.00;;;;;;;;;;5344085;26;20075;-65
2024/04/15 10:31:49;;;;;;;4.78;1.63;;;;;;;;;;5344525;26;20033;-65
2024/04/15 10:34:15;;;;;;;4.43;1.67;;;;;;;;;;5308791;26;20037;-65
2024/04/15 10:36:43;;;;;;;4.90;1.95;;;;;;;;;;5310450;26;20014;-64
2024/04/15 10:39:15;;;;;;;4.80;1.60;;;;;;;;;;5344468;26;20008;-65
2024/04/15 10:41:42;;;;;;;8.13;2.40;;;;;;;;;;5345110;26;20013;-67
2024/04/15 10:44:07;;;;;;;4.05;1.67;;;;;;;;;;5344551;26;20013;-67
2024/04/15 10:46:33;;;;;;;5.43;1.67;;;;;;;;;;5345134;26;20009;-68
2024/04/15 10:49:03;;;;;;;6.30;1.88;;;;;;;;;;5313547;26;20009;-67
2024/04/15 10:51:28;;;;;;;3.97;1.30;;;;;;;;;;5345007;26;20328;-68
2024/04/15 10:53:54;;;;;;;4.13;1.48;;;;;;;;;;5344456;26;20027;-67
2024/04/15 10:56:20;;;;;;;7.28;1.27;;;;;;;;;;5345221;26;20502;-67
2024/04/15 10:58:45;;;;;;;3.85;1.70;;;;;;;;;;5344017;26;20009;-67
2024/04/15 11:01:16;;;;;;;3.78;1.70;;;;;;;;;;5342557;26;20399;-67
2024/04/15 11:03:43;;;;;;;4.00;1.35;;;;;;;;;;5343471;26;20005;-67
2024/04/15 11:06:11;;;;;;;4.22;1.55;;;;;;;;;;5344677;26;20004;-67
2024/04/15 11:08:37;;;;;;;5.25;1.65;;;;;;;;;;5343375;26;20027;-67
2024/04/15 11:11:02;;;;;;;4.15;1.38;;;;;;;;;;5344555;26;20005;-66
2024/04/15 11:13:28;;;;;;;4.22;1.35;;;;;;;;;;5343675;26;20008;-67
2024/04/15 11:15:54;;;;;;;6.28;2.03;;;;;;;;;;5342764;26;20011;-66
2024/04/15 11:18:20;;;;;;;2.55;1.60;;;;;;;;;;5344348;26;20012;-67
2024/04/15 11:20:46;;;;;;;5.68;1.42;;;;;;;;;;5343661;26;20086;-67
2024/04/15 11:23:12;;;;;;;2.70;1.23;;;;;;;;;;5343750;26;20029;-67
2024/04/15 11:25:38;;;;;;;4.13;1.00;;;;;;;;;;5342257;26;20000;-67
2024/04/15 11:28:05;;;;;;;2.67;1.17;;;;;;;;;;5344039;26;20009;-67
2024/04/15 11:30:30;;;;;;;6.60;1.65;;;;;;;;;;5342243;26;20020;-67
2024/04/15 11:32:58;;;;;;;3.92;1.23;;;;;;;;;;5343855;26;20009;-67
2024/04/15 11:35:23;;;;;;;7.78;1.30;;;;;;;;;;5344008;26;20019;-66
2024/04/15 11:38:02;;;;;;;3.38;1.27;;;;;;;;;;5344122;26;20013;-67
2024/04/15 11:40:27;;;;;;;6.05;1.92;;;;;;;;;;5343818;26;20083;-67
2024/04/15 11:42:54;;;;;;;5.75;1.73;;;;;;;;;;5341320;26;20041;-67
2024/04/15 11:45:20;;;;;;;4.75;1.52;;;;;;;;;;5344629;26;20001;-67
2024/04/15 11:47:54;;;;;;;1.15;1.00;;;;;;;;;;5341399;26;20005;-67
2024/04/15 11:50:20;;;;;;;4.73;1.27;;;;;;;;;;5344251;26;20051;-64
2024/04/15 11:52:45;;;;;;;2.22;1.02;;;;;;;;;;5343429;26;20052;-67
2024/04/15 11:55:19;;;;;;;6.20;1.13;;;;;;;;;;5343707;26;20467;-67
2024/04/15 11:57:44;;;;;;;4.68;1.17;;;;;;;;;;5343136;26;20009;-66
2024/04/15 12:00:11;;;;;;;5.47;1.20;;;;;;;;;;5343872;26;20001;-66
2024/04/15 12:02:38;;;;;;;6.53;2.67;;;;;;;;;;5343347;26;20009;-67
2024/04/15 12:05:05;;;;;;;1.52;0.90;;;;;;;;;;5343990;26;20005;-66
2024/04/15 12:07:31;;;;;;;2.83;1.20;;;;;;;;;;5343325;26;20430;-66
2024/04/15 12:09:56;;;;;;;2.67;1.13;;;;;;;;;;5341416;26;20011;-66
2024/04/15 12:12:22;;;;;;;6.07;1.10;;;;;;;;;;5342681;26;20009;-66
2024/04/15 12:14:47;;;;;;;2.05;1.40;;;;;;;;;;5343838;26;20324;-67
2024/04/15 12:17:12;;;;;;;5.97;1.25;;;;;;;;;;5343259;26;20037;-66
2024/04/15 12:19:38;;;;;;;5.00;1.20;;;;;;;;;;5313957;26;20013;-66
2024/04/15 12:22:04;;;;;;;5.97;2.03;;;;;;;;;;5346068;26;20015;-66
2024/04/15 12:24:29;;;;;;;2.17;1.08;;;;;;;;;;5346948;26;20013;-66
2024/04/15 12:26:54;;;;;;;6.30;1.33;;;;;;;;;;5346168;26;19997;-66
2024/04/15 12:29:19;;;;;;;3.20;1.25;;;;;;;;;;5347317;26;20011;-65
2024/04/15 12:31:46;;;;;;;1.77;1.42;;;;;;;;;;5345732;26;20029;-66
2024/04/15 12:34:11;;;;;;;4.65;1.08;;;;;;;;;;5346501;26;20004;-65
2024/04/15 12:36:36;;;;;;;5.43;1.30;;;;;;;;;;5345737;26;20012;-66
2024/04/15 12:39:01;;;;;;;2.22;1.42;;;;;;;;;;5343737;26;20081;-66
2024/04/15 12:41:27;;;;;;;4.60;1.83;;;;;;;;;;5346327;26;20486;-66
2024/04/15 12:43:52;;;;;;;5.07;1.70;;;;;;;;;;5345652;26;20016;-66
2024/04/15 12:46:17;;;;;;;3.00;1.58;;;;;;;;;;5347041;26;20005;-65
2024/04/15 12:48:44;;;;;;;8.73;1.80;;;;;;;;;;5346045;26;20005;-66
2024/04/15 12:51:09;;;;;;;5.43;1.75;;;;;;;;;;5346587;26;19997;-66
2024/04/15 12:53:35;;;;;;;5.63;1.80;;;;;;;;;;5345662;26;20473;-66
2024/04/15 12:56:00;;;;;;;3.63;1.50;;;;;;;;;;5346580;26;19997;-66
2024/04/15 12:58:26;;;;;;;5.03;1.90;;;;;;;;;;5346171;26;20018;-66
2024/04/15 13:00:51;;;;;;;6.72;1.65;;;;;;;;;;5346318;26;20020;-66
2024/04/15 13:03:16;;;;;;;7.35;2.85;;;;;;;;;;5345883;26;20005;-66
2024/04/15 13:05:42;;;;;;;4.10;1.50;;;;;;;;;;5346599;26;20005;-66
2024/04/15 13:08:08;;;;;;;7.03;1.75;;;;;;;;;;5346162;26;20078;-66
2024/04/15 13:10:33;;;;;;;7.10;1.67;;;;;;;;;;5346364;26;20436;-66
2024/04/15 13:12:59;;;;;;;3.45;1.20;;;;;;;;;;5346433;26;20045;-67
2024/04/15 13:15:26;;;;;;;3.40;1.25;;;;;;;;;;5346418;26;20071;-66
2024/04/15 13:17:53;;;;;;;3.78;1.75;;;;;;;;;;5345283;26;20009;-66
2024/04/15 13:20:20;;;;;;;7.15;1.83;;;;;;;;;;5344133;26;20011;-66
2024/04/15 13:22:45;;;;;;;8.43;1.73;;;;;;;;;;5343389;26;20012;-66
2024/04/15 13:25:11;;;;;;;3.65;1.67;;;;;;;;;;5346258;26;20004;-66
2024/04/15 13:27:36;;;;;;;4.45;1.40;;;;;;;;;;5345575;26;20005;-66
2024/04/15 13:30:01;;;;;;;6.70;1.23;;;;;;;;;;5345727;26;20001;-66
2024/04/15 13:32:27;;;;;;;2.42;1.13;;;;;;;;;;5345707;26;20009;-66
2024/04/15 13:34:56;;;;;;;3.17;1.17;;;;;;;;;;5345628;26;19998;-67
2024/04/15 13:37:21;;;;;;;8.60;1.73;;;;;;;;;;5344906;26;20019;-67
2024/04/15 13:39:47;;;;;;;2.13;1.20;;;;;;;;;;5345392;26;20113;-66
2024/04/15 13:42:12;;;;;;;7.13;1.70;;;;;;;;;;5345066;26;20070;-66
2024/04/15 13:44:37;;;;;;;2.35;0.93;;;;;;;;;;5345635;26;20012;-67
2024/04/15 13:47:03;;;;;;;3.45;1.20;;;;;;;;;;5344753;26;20020;-66
2024/04/15 13:49:28;;;;;;;5.97;1.08;;;;;;;;;;5345834;26;19997;-66
2024/04/15 13:51:55;;;;;;;6.80;0.90;;;;;;;;;;5344602;26;20012;-66
2024/04/15 13:54:20;;;;;;;7.18;1.58;;;;;;;;;;5345208;26;19993;-66
2024/04/15 13:56:46;;;;;;;3.10;0.80;;;;;;;;;;5344620;26;20020;-66
2024/04/15 13:59:12;;;;;;;3.42;1.23;;;;;;;;;;5345315;26;20012;-66
2024/04/15 14:01:38;;;;;;;4.63;1.40;;;;;;;;;;5344939;26;19997;-66
2024/04/15 14:04:03;;;;;;;8.13;1.13;;;;;;;;;;5344587;26;20056;-66
2024/04/15 14:06:28;;;;;;;6.43;1.00;;;;;;;;;;5343927;26;20028;-67
2024/04/15 14:08:54;;;;;;;1.90;0.80;;;;;;;;;;5341950;26;20004;-67
2024/04/15 14:11:20;;;;;;;3.25;1.10;;;;;;;;;;5345541;26;20012;-64
2024/04/15 14:13:45;;;;;;;4.35;1.23;;;;;;;;;;5344757;26;20016;-64
2024/04/15 14:16:10;;;;;;;4.15;2.22;;;;;;;;;;5345043;26;20001;-63
2024/04/15 14:18:37;;;;;;;7.63;1.02;;;;;;;;;;5344284;26;20349;-64
2024/04/15 14:21:04;;;;;;;1.58;1.00;;;;;;;;;;5345238;26;20000;-64
2024/04/15 14:23:30;;;;;;;12.52;1.20;;;;;;;;;;5345003;26;20445;-64
2024/04/15 14:25:55;;;;;;;2.60;1.00;;;;;;;;;;5344644;26;20010;-64